createdAt,value
2017-12-13T00:00:18.436Z,78.3
2017-12-13T00:01:22.916Z,78
2017-12-13T00:02:27.811Z,78.3
2017-12-13T00:03:32.528Z,78.4
2017-12-13T00:04:36.879Z,78.1
2017-12-13T00:05:43.729Z,78.5
2017-12-13T00:06:50.228Z,78.7
2017-12-13T00:07:56.578Z,78.6
2017-12-13T00:09:09.980Z,78.3
2017-12-13T00:10:16.850Z,78.8
2017-12-13T00:11:20.383Z,79.4
2017-12-13T00:12:23.709Z,79.4
2017-12-13T00:13:37.078Z,79.5
2017-12-13T00:14:42.792Z,79.9
2017-12-13T00:15:52.887Z,79.5
2017-12-13T00:16:59.288Z,79.4
2017-12-13T00:18:17.615Z,79.6
2017-12-13T00:19:33.033Z,79.8
2017-12-13T00:20:38.353Z,79.8
2017-12-13T00:21:43.697Z,79.6
2017-12-13T00:22:47.322Z,79.4
2017-12-13T00:23:50.786Z,79.6
2017-12-13T00:24:55.717Z,79.6
2017-12-13T00:25:59.583Z,79.5
2017-12-13T00:27:02.896Z,79.3
2017-12-13T00:28:06.337Z,79.6
2017-12-13T00:29:19.490Z,79.6
2017-12-13T00:30:22.916Z,79.2
2017-12-13T00:31:26.375Z,79.1
2017-12-13T00:32:31.977Z,79.4
2017-12-13T00:33:38.631Z,79.8
2017-12-13T00:34:45.744Z,79.8
2017-12-13T00:35:51.129Z,80.4
2017-12-13T00:36:57.095Z,80.4
2017-12-13T00:38:04.935Z,80.1
2017-12-13T00:39:18.355Z,79.9
2017-12-13T00:40:30.432Z,79.7
2017-12-13T00:41:33.862Z,80.7
2017-12-13T00:42:40.462Z,80.3
2017-12-13T00:43:46.734Z,80.4
2017-12-13T00:44:51.059Z,80.2
2017-12-13T00:45:57.769Z,80.1
2017-12-13T00:47:03.329Z,79.7
2017-12-13T00:48:10.938Z,79.8
2017-12-13T00:49:15.073Z,79.8
2017-12-13T00:50:19.837Z,79.8
2017-12-13T00:51:26.735Z,80.1
2017-12-13T00:52:41.048Z,80.5
2017-12-13T00:54:04.421Z,80.6
2017-12-13T00:55:09.663Z,80.3
2017-12-13T00:56:15.861Z,80.2
2017-12-13T00:57:29.132Z,80.3
2017-12-13T00:58:33.088Z,80.6
2017-12-13T00:59:38.447Z,81
2017-12-13T01:00:41.769Z,81.2
2017-12-13T01:01:49.455Z,81.3
2017-12-13T01:03:02.431Z,81.4
2017-12-13T01:04:15.834Z,81.3
2017-12-13T01:05:30.419Z,80.9
2017-12-13T01:06:33.843Z,81
2017-12-13T01:07:37.304Z,80.8
2017-12-13T01:08:52.711Z,80.6
2017-12-13T01:10:01.292Z,80.5
2017-12-13T01:11:04.788Z,80.5
2017-12-13T01:12:12.884Z,80.7
2017-12-13T01:13:36.182Z,81.1
2017-12-13T01:14:52.725Z,81.1
2017-12-13T01:15:56.160Z,81.9
2017-12-13T01:17:01.634Z,81.5
2017-12-13T01:18:05.073Z,81.4
2017-12-13T01:19:21.435Z,81.4
2017-12-13T01:20:26.731Z,81.4
2017-12-13T01:21:40.107Z,81.6
2017-12-13T01:22:43.572Z,81.6
2017-12-13T01:23:49.663Z,81.7
2017-12-13T01:24:58.291Z,81.9
2017-12-13T01:26:25.186Z,82
2017-12-13T01:27:50.680Z,81.8
2017-12-13T01:28:55.301Z,81.6
2017-12-13T01:30:03.911Z,81.8
2017-12-13T01:31:08.824Z,81.8
2017-12-13T01:32:12.897Z,81.9
2017-12-13T01:33:29.988Z,81.8
2017-12-13T01:34:37.696Z,81.8
2017-12-13T01:35:46.205Z,81.8
2017-12-13T01:36:50.478Z,82.1
2017-12-13T01:38:12.278Z,82.2
2017-12-13T01:39:26.060Z,82.2
2017-12-13T01:40:32.623Z,83.2
2017-12-13T01:41:39.331Z,82.5
2017-12-13T01:42:42.881Z,82.6
2017-12-13T01:43:55.073Z,82.5
2017-12-13T01:44:59.294Z,82.3
2017-12-13T01:46:13.443Z,82.1
2017-12-13T01:47:36.709Z,82.1
2017-12-13T01:48:41.428Z,82.4
2017-12-13T01:49:56.536Z,82.7
2017-12-13T01:51:00.027Z,82.8
2017-12-13T01:52:07.463Z,82.8
2017-12-13T01:53:33.135Z,82.2
2017-12-13T01:54:47.437Z,82.2
2017-12-13T01:55:57.652Z,82.1
2017-12-13T01:57:03.528Z,82.2
2017-12-13T01:58:15.946Z,82.4
2017-12-13T01:59:21.086Z,82.3
2017-12-13T02:00:26.045Z,82.4
2017-12-13T02:01:48.799Z,82.4
2017-12-13T02:02:52.437Z,82.3
2017-12-13T02:03:55.943Z,82.3
2017-12-13T02:04:59.756Z,82.2
2017-12-13T02:06:04.672Z,82.1
2017-12-13T02:07:08.671Z,82
2017-12-13T02:08:14.736Z,81.8
2017-12-13T02:09:19.055Z,81.8
2017-12-13T02:10:24.318Z,81.8
2017-12-13T02:11:29.123Z,81.8
2017-12-13T02:12:37.780Z,81.7
2017-12-13T02:13:42.262Z,81.7
2017-12-13T02:14:49.728Z,82
2017-12-13T02:15:55.719Z,82.2
2017-12-13T02:17:06.219Z,82.5
2017-12-13T02:18:11.044Z,82.5
2017-12-13T02:19:14.508Z,82.5
2017-12-13T02:20:18.573Z,82.7
2017-12-13T02:21:21.870Z,82.5
2017-12-13T02:22:26.126Z,82.4
2017-12-13T02:23:35.006Z,82.4
2017-12-13T02:24:38.769Z,82.5
2017-12-13T02:25:42.149Z,82.5
2017-12-13T02:26:48.790Z,82.4
2017-12-13T02:27:56.698Z,82.5
2017-12-13T02:29:01.182Z,82.3
2017-12-13T02:30:04.670Z,83.1
2017-12-13T02:31:08.100Z,82.5
2017-12-13T02:32:16.584Z,82.6
2017-12-13T02:33:23.550Z,82.5
2017-12-13T02:34:32.902Z,82.9
2017-12-13T02:35:40.230Z,83
2017-12-13T02:36:53.520Z,83.3
2017-12-13T02:37:57.902Z,83.3
2017-12-13T02:39:13.556Z,83.4
2017-12-13T02:40:36.925Z,83.5
2017-12-13T02:41:40.992Z,83.9
2017-12-13T02:43:04.685Z,84
2017-12-13T02:44:19.770Z,84.1
2017-12-13T02:45:25.901Z,84.1
2017-12-13T02:46:33.226Z,83.9
2017-12-13T02:47:47.636Z,84.1
2017-12-13T02:48:56.224Z,84.2
2017-12-13T02:50:00.209Z,84.2
2017-12-13T02:51:04.705Z,84.1
2017-12-13T02:52:08.316Z,84.1
2017-12-13T02:53:13.802Z,84.1
2017-12-13T02:54:17.351Z,84.2
2017-12-13T02:55:20.959Z,84.4
2017-12-13T02:56:27.363Z,84.4
2017-12-13T02:57:36.110Z,84.3
2017-12-13T02:58:39.530Z,84.5
2017-12-13T02:59:43.507Z,84.7
2017-12-13T03:00:49.654Z,84.9
2017-12-13T03:01:53.167Z,85
2017-12-13T03:02:57.186Z,84.9
2017-12-13T03:04:01.449Z,84.9
2017-12-13T03:05:05.864Z,84.9
2017-12-13T03:06:09.848Z,85.2
2017-12-13T03:07:14.986Z,85.3
2017-12-13T03:08:22.435Z,85.6
2017-12-13T03:09:25.828Z,85.4
2017-12-13T03:10:30.467Z,85.4
2017-12-13T03:11:35.716Z,85.4
2017-12-13T03:12:40.831Z,85.4
2017-12-13T03:13:45.962Z,85.2
2017-12-13T03:14:50.806Z,85.3
2017-12-13T03:15:55.228Z,85.2
2017-12-13T03:16:59.282Z,85.3
2017-12-13T03:18:06.251Z,85.4
2017-12-13T03:19:13.917Z,85.6
2017-12-13T03:20:17.227Z,85.7
2017-12-13T03:21:23.039Z,85.6
2017-12-13T03:22:27.708Z,85.5
2017-12-13T03:23:32.296Z,85.5
2017-12-13T03:24:39.451Z,85.4
2017-12-13T03:25:43.680Z,85.3
2017-12-13T03:26:48.404Z,85.2
2017-12-13T03:27:54.173Z,85.3
2017-12-13T03:28:58.016Z,85.6
2017-12-13T03:30:04.777Z,85.6
2017-12-13T03:31:11.242Z,86.4
2017-12-13T03:32:36.050Z,85.8
2017-12-13T03:33:40.701Z,86
2017-12-13T03:34:44.127Z,86.1
2017-12-13T03:35:47.704Z,86
2017-12-13T03:36:52.967Z,85.7
2017-12-13T03:37:59.754Z,85.5
2017-12-13T03:39:04.914Z,85.6
2017-12-13T03:40:09.889Z,85.6
2017-12-13T03:41:17.250Z,85.8
2017-12-13T03:42:21.310Z,85.9
2017-12-13T03:43:24.708Z,85.9
2017-12-13T03:44:27.942Z,85.8
2017-12-13T03:45:32.657Z,85.9
2017-12-13T03:46:36.168Z,85.9
2017-12-13T03:47:39.671Z,85.8
2017-12-13T03:48:43.450Z,85.8
2017-12-13T03:49:49.485Z,85.7
2017-12-13T03:50:52.661Z,85.5
2017-12-13T03:52:01.670Z,85.4
2017-12-13T03:53:07.924Z,85.4
2017-12-13T03:54:22.540Z,85.4
2017-12-13T03:55:27.275Z,85.4
2017-12-13T03:56:30.672Z,85.4
2017-12-13T03:57:35.747Z,85.4
2017-12-13T03:58:39.106Z,85.4
2017-12-13T03:59:44.192Z,85.3
2017-12-13T04:00:49.172Z,85.4
2017-12-13T04:01:52.583Z,85.5
2017-12-13T04:02:59.513Z,85.6
2017-12-13T04:04:03.551Z,85.6
2017-12-13T04:05:08.636Z,85.6
2017-12-13T04:06:16.557Z,85.8
2017-12-13T04:07:23.528Z,85.7
2017-12-13T04:08:30.551Z,85.8
2017-12-13T04:09:34.933Z,85.9
2017-12-13T04:10:38.403Z,85.9
2017-12-13T04:11:47.407Z,85.7
2017-12-13T04:12:55.489Z,85.7
2017-12-13T04:14:06.965Z,85.6
2017-12-13T04:15:13.066Z,85.5
2017-12-13T04:16:16.552Z,85.7
2017-12-13T04:17:19.882Z,85.6
2017-12-13T04:18:24.585Z,85.4
2017-12-13T04:19:30.724Z,85.6
2017-12-13T04:20:36.650Z,85.7
2017-12-13T04:21:41.749Z,85.8
2017-12-13T04:22:46.313Z,85.7
2017-12-13T04:23:55.115Z,85.6
2017-12-13T04:25:06.968Z,85.6
2017-12-13T04:26:11.866Z,85.4
2017-12-13T04:27:15.678Z,85.4
2017-12-13T04:28:21.589Z,85.3
2017-12-13T04:29:24.830Z,85.4
2017-12-13T04:30:28.776Z,86
2017-12-13T04:31:33.997Z,85.2
2017-12-13T04:32:41.233Z,85.2
2017-12-13T04:33:48.903Z,85.3
2017-12-13T04:34:56.154Z,85.3
2017-12-13T04:36:06.040Z,85.3
2017-12-13T04:37:12.047Z,85.3
2017-12-13T04:38:17.914Z,85.1
2017-12-13T04:39:21.299Z,85
2017-12-13T04:40:27.327Z,84.9
2017-12-13T04:41:30.594Z,84.9
2017-12-13T04:42:37.590Z,85.1
2017-12-13T04:43:42.927Z,85.2
2017-12-13T04:44:47.825Z,85.4
2017-12-13T04:45:52.955Z,85.4
2017-12-13T04:46:59.290Z,85.3
2017-12-13T04:48:03.283Z,85.2
2017-12-13T04:49:07.247Z,85.3
2017-12-13T04:50:14.217Z,85.2
2017-12-13T04:51:19.118Z,85.2
2017-12-13T04:52:23.444Z,85.1
2017-12-13T04:53:30.742Z,84.8
2017-12-13T04:54:37.248Z,85
2017-12-13T04:55:41.328Z,85.1
2017-12-13T04:56:44.945Z,85.3
2017-12-13T04:57:56.499Z,85.6
2017-12-13T04:59:03.169Z,86
2017-12-13T05:00:07.183Z,86.1
2017-12-13T05:01:11.964Z,86.2
2017-12-13T05:02:17.085Z,86.2
2017-12-13T05:03:20.444Z,86.3
2017-12-13T05:04:26.695Z,86.2
2017-12-13T05:05:34.406Z,86.1
2017-12-13T05:06:42.255Z,86.2
2017-12-13T05:07:51.018Z,86
2017-12-13T05:08:59.807Z,86.1
2017-12-13T05:10:07.476Z,86
2017-12-13T05:11:15.677Z,86.1
2017-12-13T05:12:19.558Z,86
2017-12-13T05:13:25.791Z,85.7
2017-12-13T05:14:32.114Z,85.8
2017-12-13T05:15:39.380Z,85.9
2017-12-13T05:16:43.651Z,85.7
2017-12-13T05:17:49.741Z,85.7
2017-12-13T05:18:54.271Z,85.7
2017-12-13T05:20:05.549Z,85.8
2017-12-13T05:21:11.199Z,85.8
2017-12-13T05:22:14.758Z,85.8
2017-12-13T05:23:19.956Z,85.9
2017-12-13T05:24:27.439Z,85.8
2017-12-13T05:25:34.413Z,85.7
2017-12-13T05:26:39.045Z,85.6
2017-12-13T05:27:44.063Z,85.6
2017-12-13T05:28:49.530Z,85.6
2017-12-13T05:29:55.658Z,85.6
2017-12-13T05:31:06.209Z,85.5
2017-12-13T05:32:10.310Z,85.6
2017-12-13T05:33:14.410Z,85.6
2017-12-13T05:34:17.829Z,85.5
2017-12-13T05:35:21.335Z,85.6
2017-12-13T05:36:25.511Z,85.5
2017-12-13T05:37:28.943Z,85.5
2017-12-13T05:38:32.395Z,85.6
2017-12-13T05:39:35.911Z,85.5
2017-12-13T05:40:39.275Z,85.6
2017-12-13T05:41:47.936Z,85.6
2017-12-13T05:42:51.459Z,85.7
2017-12-13T05:43:54.837Z,85.8
2017-12-13T05:44:59.891Z,85.6
2017-12-13T05:46:03.379Z,85.6
2017-12-13T05:47:06.888Z,85.5
2017-12-13T05:48:10.381Z,85.6
2017-12-13T05:49:14.344Z,85.5
2017-12-13T05:50:18.575Z,85.6
2017-12-13T05:51:22.570Z,85.6
2017-12-13T05:52:31.426Z,85.5
2017-12-13T05:53:35.132Z,85.4
2017-12-13T05:54:40.651Z,85.4
2017-12-13T05:55:44.764Z,85.5
2017-12-13T05:56:48.919Z,85.3
2017-12-13T05:57:54.189Z,85.3
2017-12-13T05:58:58.295Z,85.4
2017-12-13T06:00:02.722Z,85.4
2017-12-13T06:01:06.073Z,85.3
2017-12-13T06:02:10.723Z,85.2
2017-12-13T06:03:18.188Z,85.1
2017-12-13T06:04:21.586Z,85.1
2017-12-13T06:05:25.093Z,85.2
2017-12-13T06:06:28.374Z,85.1
2017-12-13T06:07:31.647Z,84.9
2017-12-13T06:08:35.124Z,85.1
2017-12-13T06:09:39.915Z,84.9
2017-12-13T06:10:44.544Z,84.9
2017-12-13T06:11:49.433Z,84.9
2017-12-13T06:12:53.516Z,84.9
2017-12-13T06:14:00.615Z,84.9
2017-12-13T06:15:04.109Z,84.9
2017-12-13T06:16:08.210Z,85
2017-12-13T06:17:14.421Z,85.1
2017-12-13T06:18:19.464Z,85.1
2017-12-13T06:19:28.699Z,85
2017-12-13T06:20:32.219Z,84.8
2017-12-13T06:21:35.530Z,85
2017-12-13T06:22:39.907Z,84.9
2017-12-13T06:23:45.036Z,85
2017-12-13T06:24:51.744Z,85.1
2017-12-13T06:25:57.002Z,85
2017-12-13T06:27:04.304Z,85.1
2017-12-13T06:28:10.986Z,84.9
2017-12-13T06:29:16.931Z,84.7
2017-12-13T06:30:22.285Z,84.7
2017-12-13T06:31:30.716Z,84.8
2017-12-13T06:32:34.171Z,84.7
2017-12-13T06:33:40.063Z,84.8
2017-12-13T06:34:48.549Z,84.7
2017-12-13T06:35:57.614Z,84.6
2017-12-13T06:37:03.735Z,84.7
2017-12-13T06:38:10.328Z,84.6
2017-12-13T06:39:13.756Z,84.7
2017-12-13T06:40:22.355Z,84.6
2017-12-13T06:41:25.766Z,84.4
2017-12-13T06:42:31.426Z,84.6
2017-12-13T06:43:37.229Z,84.6
2017-12-13T06:44:40.784Z,84.6
2017-12-13T06:45:44.103Z,84.6
2017-12-13T06:46:55.394Z,84.6
2017-12-13T06:48:00.707Z,84.5
2017-12-13T06:49:05.514Z,84.4
2017-12-13T06:50:11.043Z,84.5
2017-12-13T06:51:15.471Z,84.3
2017-12-13T06:52:20.963Z,84.3
2017-12-13T06:53:27.814Z,84.4
2017-12-13T06:54:31.817Z,84.5
2017-12-13T06:55:37.342Z,84.4
2017-12-13T06:56:44.897Z,84.4
2017-12-13T06:57:57.771Z,84.4
2017-12-13T06:59:04.846Z,84.2
2017-12-13T07:00:10.118Z,84.2
2017-12-13T07:01:14.216Z,84.1
2017-12-13T07:02:19.662Z,84.2
2017-12-13T07:03:27.436Z,84.3
2017-12-13T07:04:33.059Z,84.3
2017-12-13T07:05:40.013Z,84.2
2017-12-13T07:06:45.747Z,84
2017-12-13T07:07:49.799Z,84
2017-12-13T07:08:56.179Z,84.3
2017-12-13T07:10:04.079Z,84
2017-12-13T07:11:08.769Z,84.2
2017-12-13T07:12:14.193Z,84.2
2017-12-13T07:13:17.923Z,84.2
2017-12-13T07:14:24.160Z,84.1
2017-12-13T07:15:28.307Z,83.9
2017-12-13T07:16:33.647Z,84
2017-12-13T07:17:37.142Z,84
2017-12-13T07:18:41.494Z,84
2017-12-13T07:19:52.292Z,83.9
2017-12-13T07:20:59.417Z,83.9
2017-12-13T07:22:08.184Z,83.9
2017-12-13T07:23:14.857Z,83.7
2017-12-13T07:24:27.203Z,83.7
2017-12-13T07:25:34.339Z,83.4
2017-12-13T07:26:38.423Z,83.6
2017-12-13T07:27:44.943Z,83.5
2017-12-13T07:28:50.848Z,83.6
2017-12-13T07:29:59.191Z,83.2
2017-12-13T07:31:09.936Z,83.2
2017-12-13T07:32:24.768Z,83.3
2017-12-13T07:33:32.315Z,83.4
2017-12-13T07:34:41.153Z,83.3
2017-12-13T07:35:50.886Z,83.2
2017-12-13T07:36:57.234Z,83.3
2017-12-13T07:38:02.091Z,83.2
2017-12-13T07:39:07.565Z,83.3
2017-12-13T07:40:18.310Z,83.3
2017-12-13T07:41:25.543Z,83
2017-12-13T07:42:32.919Z,82.9
2017-12-13T07:43:36.483Z,83
2017-12-13T07:44:41.963Z,83
2017-12-13T07:45:48.325Z,82.7
2017-12-13T07:46:53.355Z,82.7
2017-12-13T07:47:59.677Z,82.5
2017-12-13T07:49:03.110Z,82.7
2017-12-13T07:50:06.787Z,82.7
2017-12-13T07:51:14.436Z,82.8
2017-12-13T07:52:20.264Z,82.7
2017-12-13T07:53:30.091Z,82.7
2017-12-13T07:54:37.337Z,82.6
2017-12-13T07:55:43.894Z,82.5
2017-12-13T07:56:47.435Z,82.5
2017-12-13T07:57:52.687Z,82.5
2017-12-13T07:58:59.129Z,82.6
2017-12-13T08:00:05.980Z,82.5
2017-12-13T08:01:14.353Z,82.5
2017-12-13T08:02:17.816Z,82.5
2017-12-13T08:03:25.485Z,82.6
2017-12-13T08:04:33.252Z,82.6
2017-12-13T08:05:37.586Z,82.5
2017-12-13T08:06:43.573Z,82.4
2017-12-13T08:07:47.670Z,82.5
2017-12-13T08:08:59.149Z,82.5
2017-12-13T08:10:04.405Z,82.2
2017-12-13T08:11:11.428Z,82.2
2017-12-13T08:12:18.779Z,82.2
2017-12-13T08:13:26.689Z,82.1
2017-12-13T08:14:30.205Z,81.8
2017-12-13T08:15:39.345Z,81.8
2017-12-13T08:16:43.268Z,81.3
2017-12-13T08:17:49.557Z,81.5
2017-12-13T08:18:54.223Z,81.4
2017-12-13T08:20:03.428Z,81.5
2017-12-13T08:21:07.751Z,81.5
2017-12-13T08:22:11.201Z,81.4
2017-12-13T08:23:15.819Z,81.5
2017-12-13T08:24:21.427Z,81.1
2017-12-13T08:25:25.063Z,81.1
2017-12-13T08:26:32.218Z,81.3
2017-12-13T08:27:36.919Z,81.3
2017-12-13T08:28:42.096Z,81
2017-12-13T08:29:47.664Z,81.2
2017-12-13T08:30:54.678Z,81.2
2017-12-13T08:32:00.281Z,81.4
2017-12-13T08:33:05.838Z,81.4
2017-12-13T08:34:12.603Z,81.4
2017-12-13T08:35:18.845Z,81.2
2017-12-13T08:36:23.107Z,81.2
2017-12-13T08:37:30.759Z,81.5
2017-12-13T08:38:34.595Z,81.4
2017-12-13T08:39:37.995Z,81.9
2017-12-13T08:40:41.999Z,81.4
2017-12-13T08:41:45.364Z,81.3
2017-12-13T08:42:48.971Z,81.1
2017-12-13T08:43:52.427Z,81.1
2017-12-13T08:44:55.973Z,81
2017-12-13T08:45:59.370Z,81
2017-12-13T08:47:04.144Z,81
2017-12-13T08:48:11.303Z,81.3
2017-12-13T08:49:15.570Z,81.1
2017-12-13T08:50:19.109Z,81
2017-12-13T08:51:22.558Z,81.8
2017-12-13T08:52:26.034Z,81
2017-12-13T08:53:31.258Z,80.6
2017-12-13T08:54:34.691Z,80.4
2017-12-13T08:55:38.174Z,80.3
2017-12-13T08:56:42.247Z,80.1
2017-12-13T08:57:45.791Z,80.1
2017-12-13T08:58:53.373Z,79.6
2017-12-13T08:59:57.749Z,79.4
2017-12-13T09:01:02.405Z,79.3
2017-12-13T09:02:06.028Z,79.4
2017-12-13T09:03:10.486Z,79.3
2017-12-13T09:04:14.033Z,79.2
2017-12-13T09:05:18.098Z,78.8
2017-12-13T09:06:21.689Z,78.6
2017-12-13T09:07:25.192Z,78.3
2017-12-13T09:08:30.086Z,78.2
2017-12-13T09:09:37.475Z,78.6
2017-12-13T09:10:41.001Z,78.1
2017-12-13T09:11:44.568Z,77.6
2017-12-13T09:12:48.751Z,78
2017-12-13T09:13:53.122Z,77.9
2017-12-13T09:14:57.640Z,77.3
2017-12-13T09:16:02.514Z,77.5
2017-12-13T09:17:08.628Z,76.7
2017-12-13T09:18:12.939Z,76
2017-12-13T09:19:17.759Z,76.2
2017-12-13T09:20:30.341Z,76.6
2017-12-13T09:21:34.974Z,76.5
2017-12-13T09:22:41.398Z,76.8
2017-12-13T09:23:48.031Z,76.3
2017-12-13T09:24:59.090Z,76.6
2017-12-13T09:26:06.044Z,77
2017-12-13T09:27:10.553Z,76.8
2017-12-13T09:28:17.981Z,75.8
2017-12-13T09:29:24.585Z,76.5
2017-12-13T09:30:29.879Z,76.4
2017-12-13T09:31:39.777Z,76.2
2017-12-13T09:32:44.987Z,75.6
2017-12-13T09:33:51.223Z,75.8
2017-12-13T09:34:55.187Z,76.2
2017-12-13T09:36:01.181Z,76.8
2017-12-13T09:37:06.988Z,76.7
2017-12-13T09:38:13.122Z,75.9
2017-12-13T09:39:20.912Z,76.2
2017-12-13T09:40:28.008Z,75.5
2017-12-13T09:41:33.926Z,75.4
2017-12-13T09:42:48.848Z,76
2017-12-13T09:43:55.093Z,75.9
2017-12-13T09:45:03.263Z,75.3
2017-12-13T09:46:13.197Z,75.8
2017-12-13T09:47:19.430Z,75.9
2017-12-13T09:48:28.423Z,75.8
2017-12-13T09:49:36.034Z,75.9
2017-12-13T09:50:44.400Z,75.5
2017-12-13T09:51:51.533Z,75.2
2017-12-13T09:53:01.835Z,74.5
2017-12-13T09:54:18.608Z,73.7
2017-12-13T09:55:26.337Z,73.8
2017-12-13T09:56:35.608Z,74.1
2017-12-13T09:57:41.538Z,74.5
2017-12-13T09:58:50.394Z,74.7
2017-12-13T09:59:59.967Z,75
2017-12-13T10:01:11.032Z,74.8
2017-12-13T10:02:15.958Z,73.8
2017-12-13T10:03:22.137Z,73.4
2017-12-13T10:04:29.436Z,73.4
2017-12-13T10:05:47.363Z,73
2017-12-13T10:06:58.105Z,72.6
2017-12-13T10:08:08.521Z,72.2
2017-12-13T10:09:15.676Z,71.9
2017-12-13T10:10:19.857Z,72.7
2017-12-13T10:11:24.013Z,72.8
2017-12-13T10:12:28.459Z,72.1
2017-12-13T10:13:31.890Z,72.2
2017-12-13T10:14:38.641Z,72.8
2017-12-13T10:15:42.176Z,71.5
2017-12-13T10:16:53.307Z,71.2
2017-12-13T10:18:02.659Z,72.1
2017-12-13T10:19:13.041Z,72.4
2017-12-13T10:20:24.111Z,72.3
2017-12-13T10:21:28.183Z,71.6
2017-12-13T10:22:32.259Z,71.8
2017-12-13T10:23:40.070Z,72
2017-12-13T10:24:43.522Z,72.4
2017-12-13T10:25:49.095Z,71.2
2017-12-13T10:26:53.164Z,71.9
2017-12-13T10:28:05.564Z,71.8
2017-12-13T10:29:14.399Z,71.3
2017-12-13T10:30:22.162Z,71.4
2017-12-13T10:31:25.677Z,70.3
2017-12-13T10:32:30.292Z,70.4
2017-12-13T10:33:39.018Z,70.5
2017-12-13T10:34:45.427Z,70.6
2017-12-13T10:35:49.646Z,70.6
2017-12-13T10:36:53.716Z,70.4
2017-12-13T10:37:58.085Z,71.3
2017-12-13T10:39:07.960Z,70.8
2017-12-13T10:40:17.693Z,71.7
2017-12-13T10:41:21.024Z,70.7
2017-12-13T10:42:28.049Z,70.1
2017-12-13T10:43:31.413Z,69.4
2017-12-13T10:44:35.923Z,70.4
2017-12-13T10:45:40.702Z,71
2017-12-13T10:46:44.746Z,70.4
2017-12-13T10:47:55.656Z,70.5
2017-12-13T10:49:02.679Z,69.8
2017-12-13T10:50:11.559Z,69.8
2017-12-13T10:51:15.779Z,69.5
2017-12-13T10:52:22.535Z,70.3
2017-12-13T10:53:27.389Z,70.1
2017-12-13T10:54:30.696Z,69.5
2017-12-13T10:55:38.633Z,69.6
2017-12-13T10:56:42.209Z,70.3
2017-12-13T10:57:46.967Z,70
2017-12-13T10:58:54.051Z,69.3
2017-12-13T10:59:59.345Z,70.3
2017-12-13T11:01:09.872Z,69.8
2017-12-13T11:02:13.504Z,69.4
2017-12-13T11:03:16.960Z,70.6
2017-12-13T11:04:20.283Z,69.9
2017-12-13T11:05:26.622Z,69.4
2017-12-13T11:06:30.093Z,69.6
2017-12-13T11:07:34.487Z,69.5
2017-12-13T11:08:40.402Z,69.4
2017-12-13T11:09:43.839Z,69.1
2017-12-13T11:10:51.649Z,69.1
2017-12-13T11:11:58.752Z,68.5
2017-12-13T11:13:02.017Z,67.9
2017-12-13T11:14:08.111Z,67.6
2017-12-13T11:15:16.673Z,69.1
2017-12-13T11:16:20.102Z,69
2017-12-13T11:17:25.570Z,69.6
2017-12-13T11:18:31.246Z,68.4
2017-12-13T11:19:36.233Z,67.7
2017-12-13T11:20:43.336Z,66.1
2017-12-13T11:21:46.829Z,67
2017-12-13T11:22:54.316Z,68.1
2017-12-13T11:23:59.166Z,67.8
2017-12-13T11:25:02.584Z,68.1
2017-12-13T11:26:08.474Z,67.6
2017-12-13T11:27:11.857Z,67.1
2017-12-13T11:28:16.764Z,67.4
2017-12-13T11:29:22.072Z,67.6
2017-12-13T11:30:25.744Z,68.2
2017-12-13T11:31:29.246Z,67.5
2017-12-13T11:32:32.356Z,67.5
2017-12-13T11:33:39.316Z,68.1
2017-12-13T11:34:42.688Z,68.3
2017-12-13T11:35:46.703Z,68
2017-12-13T11:36:50.267Z,68.3
2017-12-13T11:37:53.672Z,67.7
2017-12-13T11:38:57.744Z,67.6
2017-12-13T11:40:02.489Z,67.4
2017-12-13T11:41:05.913Z,67.7
2017-12-13T11:42:09.463Z,66
2017-12-13T11:43:12.914Z,66.8
2017-12-13T11:44:20.143Z,66.9
2017-12-13T11:45:24.877Z,66.9
2017-12-13T11:46:29.346Z,67.4
2017-12-13T11:47:32.825Z,66.4
2017-12-13T11:48:37.164Z,65.8
2017-12-13T11:49:42.842Z,66.6
2017-12-13T11:50:46.273Z,66.7
2017-12-13T11:51:51.333Z,66.4
2017-12-13T11:52:55.847Z,66
2017-12-13T11:53:59.802Z,66.9
2017-12-13T11:55:10.254Z,67.2
2017-12-13T11:56:15.744Z,67.5
2017-12-13T11:57:22.221Z,68.4
2017-12-13T11:58:27.154Z,68.4
2017-12-13T11:59:31.838Z,68.4
2017-12-13T12:00:36.638Z,68.3
2017-12-13T12:01:43.114Z,68
2017-12-13T12:02:49.428Z,67.7
2017-12-13T12:03:56.807Z,68.4
2017-12-13T12:05:01.556Z,68
2017-12-13T12:06:09.274Z,68
2017-12-13T12:07:12.803Z,68.4
2017-12-13T12:08:18.955Z,68.4
2017-12-13T12:09:22.416Z,67.7
2017-12-13T12:10:26.372Z,67.8
2017-12-13T12:11:33.073Z,67.8
2017-12-13T12:12:37.397Z,67.5
2017-12-13T12:13:43.508Z,67.1
2017-12-13T12:14:47.086Z,67.5
2017-12-13T12:15:50.624Z,67.9
2017-12-13T12:16:59.873Z,67.6
2017-12-13T12:18:06.647Z,67.6
2017-12-13T12:19:09.975Z,67.6
2017-12-13T12:20:13.443Z,68
2017-12-13T12:21:17.591Z,68.7
2017-12-13T12:22:23.180Z,68.4
2017-12-13T12:23:27.407Z,68.2
2017-12-13T12:24:33.879Z,68.5
2017-12-13T12:25:40.345Z,68.8
2017-12-13T12:26:45.208Z,68.6
2017-12-13T12:27:53.652Z,68.7
2017-12-13T12:28:58.865Z,69.1
2017-12-13T12:30:02.342Z,69.3
2017-12-13T12:31:06.267Z,69.2
2017-12-13T12:32:09.584Z,69
2017-12-13T12:33:15.712Z,69.1
2017-12-13T12:34:19.782Z,69.1
2017-12-13T12:35:23.873Z,69.3
2017-12-13T12:36:29.611Z,68.7
2017-12-13T12:37:34.551Z,68.6
2017-12-13T12:38:45.862Z,67.8
2017-12-13T12:39:49.784Z,66.9
2017-12-13T12:40:57.729Z,67.7
2017-12-13T12:42:01.342Z,67.2
2017-12-13T12:43:05.953Z,67.2
2017-12-13T12:44:09.747Z,67.4
2017-12-13T12:45:14.910Z,67.6
2017-12-13T12:46:20.832Z,67.7
2017-12-13T12:47:29.609Z,68
2017-12-13T12:48:33.120Z,67.8
2017-12-13T12:49:41.278Z,68
2017-12-13T12:50:50.652Z,67.9
2017-12-13T12:51:57.819Z,67.5
2017-12-13T12:53:01.963Z,67.5
2017-12-13T12:54:05.479Z,66.4
2017-12-13T12:55:12.554Z,66.4
2017-12-13T12:56:18.802Z,66
2017-12-13T12:57:22.307Z,65.9
2017-12-13T12:58:26.286Z,65.6
2017-12-13T12:59:30.371Z,66.1
2017-12-13T13:00:38.611Z,66.2
2017-12-13T13:01:43.199Z,66.2
2017-12-13T13:02:48.171Z,67
2017-12-13T13:03:54.087Z,66.2
2017-12-13T13:05:00.074Z,66
2017-12-13T13:06:04.149Z,66.4
2017-12-13T13:07:10.821Z,65.7
2017-12-13T13:08:17.185Z,65.9
2017-12-13T13:09:22.539Z,65.2
2017-12-13T13:10:27.322Z,65.5
2017-12-13T13:11:35.738Z,66
2017-12-13T13:12:39.151Z,66
2017-12-13T13:13:43.026Z,66.2
2017-12-13T13:14:46.476Z,65.9
2017-12-13T13:15:50.827Z,66.3
2017-12-13T13:16:55.434Z,66.6
2017-12-13T13:18:00.357Z,65.9
2017-12-13T13:19:09.882Z,65.8
2017-12-13T13:20:13.423Z,65.4
2017-12-13T13:21:17.260Z,64.8
2017-12-13T13:22:24.090Z,65
2017-12-13T13:23:30.861Z,64.1
2017-12-13T13:24:34.281Z,64.2
2017-12-13T13:25:38.774Z,64.2
2017-12-13T13:26:42.209Z,64.4
2017-12-13T13:27:47.881Z,63.8
2017-12-13T13:28:51.426Z,63.8
2017-12-13T13:29:54.957Z,63.3
2017-12-13T13:31:00.540Z,63
2017-12-13T13:32:05.318Z,63.4
2017-12-13T13:33:16.350Z,64
2017-12-13T13:34:22.725Z,64.3
2017-12-13T13:35:26.273Z,64.5
2017-12-13T13:36:29.648Z,63.9
2017-12-13T13:37:33.624Z,64
2017-12-13T13:38:40.726Z,64.2
2017-12-13T13:39:44.250Z,64.7
2017-12-13T13:40:49.768Z,65
2017-12-13T13:41:53.183Z,64.6
2017-12-13T13:42:56.729Z,64.6
2017-12-13T13:44:05.527Z,64.7
2017-12-13T13:45:08.724Z,64.7
2017-12-13T13:46:15.220Z,64.8
2017-12-13T13:47:18.371Z,65.3
2017-12-13T13:48:24.578Z,65.6
2017-12-13T13:49:29.812Z,66.2
2017-12-13T13:50:34.693Z,66.2
2017-12-13T13:51:39.985Z,66
2017-12-13T13:52:45.387Z,65.9
2017-12-13T13:53:49.897Z,65.7
2017-12-13T13:54:56.850Z,65.8
2017-12-13T13:56:00.986Z,66
2017-12-13T13:57:04.468Z,66.3
2017-12-13T13:58:08.011Z,66.9
2017-12-13T13:59:11.759Z,67.5
2017-12-13T14:00:16.399Z,67.4
2017-12-13T14:01:21.579Z,67.5
2017-12-13T14:02:24.957Z,67.5
2017-12-13T14:03:28.426Z,67.6
2017-12-13T14:04:31.866Z,68.4
2017-12-13T14:05:38.778Z,67.1
2017-12-13T14:06:42.282Z,66.7
2017-12-13T14:07:46.999Z,65.9
2017-12-13T14:08:50.558Z,65.9
2017-12-13T14:09:53.853Z,65.3
2017-12-13T14:10:57.223Z,65.3
2017-12-13T14:12:00.741Z,65.3
2017-12-13T14:13:04.289Z,65.3
2017-12-13T14:14:08.353Z,65.3
2017-12-13T14:15:11.892Z,65
2017-12-13T14:16:18.931Z,65.1
2017-12-13T14:17:22.302Z,64
2017-12-13T14:18:25.760Z,63.7
2017-12-13T14:19:29.280Z,62.8
2017-12-13T14:20:32.806Z,63
2017-12-13T14:21:36.241Z,63.3
2017-12-13T14:22:40.388Z,63.4
2017-12-13T14:23:44.061Z,63
2017-12-13T14:24:47.545Z,63.3
2017-12-13T14:25:50.989Z,63.7
2017-12-13T14:26:58.049Z,62.9
2017-12-13T14:28:01.552Z,62.9
2017-12-13T14:29:05.527Z,63.3
2017-12-13T14:30:08.891Z,63.9
2017-12-13T14:31:12.368Z,64.1
2017-12-13T14:32:15.736Z,64.5
2017-12-13T14:33:19.784Z,63.8
2017-12-13T14:34:23.110Z,64.7
2017-12-13T14:35:29.084Z,63.9
2017-12-13T14:36:32.385Z,64
2017-12-13T14:37:41.496Z,64.2
2017-12-13T14:38:44.988Z,64.6
2017-12-13T14:39:48.362Z,64.8
2017-12-13T14:40:51.760Z,64.9
2017-12-13T14:41:57.393Z,65.2
2017-12-13T14:43:00.938Z,65.2
2017-12-13T14:44:04.335Z,64.8
2017-12-13T14:45:08.564Z,64.9